sensor_id;sensor_type;location;lat;lon;timestamp;P1;durP1;ratioP1;P2;durP2;ratioP2
7049;SDS011;22263;52.260;10.548;2023-08-07T00:01:45;0.30;;;0.30;;
7049;SDS011;22263;52.260;10.548;2023-08-07T00:04:14;0.30;;;0.30;;
7049;SDS011;22263;52.260;10.548;2023-08-07T00:06:44;0.30;;;0.30;;
7049;SDS011;22263;52.260;10.548;2023-08-07T00:09:14;0.30;;;0.30;;
7049;SDS011;22263;52.260;10.548;2023-08-07T00:11:43;0.20;;;0.20;;
7049;SDS011;22263;52.260;10.548;2023-08-07T00:14:13;0.20;;;0.20;;
7049;SDS011;22263;52.260;10.548;2023-08-07T00:16:45;0.30;;;0.30;;
7049;SDS011;22263;52.260;10.548;2023-08-07T00:19:15;0.20;;;0.20;;
7049;SDS011;22263;52.260;10.548;2023-08-07T00:21:45;0.30;;;0.30;;
7049;SDS011;22263;52.260;10.548;2023-08-07T00:24:14;0.30;;;0.30;;
7049;SDS011;22263;52.260;10.548;2023-08-07T00:26:44;0.25;;;0.25;;
7049;SDS011;22263;52.260;10.548;2023-08-07T00:29:14;0.20;;;0.20;;
7049;SDS011;22263;52.260;10.548;2023-08-07T00:31:46;0.30;;;0.30;;
7049;SDS011;22263;52.260;10.548;2023-08-07T00:34:16;0.30;;;0.30;;
7049;SDS011;22263;52.260;10.548;2023-08-07T00:36:46;0.20;;;0.20;;
7049;SDS011;22263;52.260;10.548;2023-08-07T00:39:15;0.20;;;0.20;;
7049;SDS011;22263;52.260;10.548;2023-08-07T00:41:45;0.20;;;0.20;;
7049;SDS011;22263;52.260;10.548;2023-08-07T00:44:16;0.20;;;0.20;;
7049;SDS011;22263;52.260;10.548;2023-08-07T00:46:48;0.20;;;0.20;;
7049;SDS011;22263;52.260;10.548;2023-08-07T00:49:19;0.30;;;0.30;;
7049;SDS011;22263;52.260;10.548;2023-08-07T00:51:49;0.20;;;0.20;;
7049;SDS011;22263;52.260;10.548;2023-08-07T00:54:19;0.20;;;0.20;;
7049;SDS011;22263;52.260;10.548;2023-08-07T00:56:50;0.30;;;0.30;;
7049;SDS011;22263;52.260;10.548;2023-08-07T00:59:20;0.20;;;0.20;;
7049;SDS011;22263;52.260;10.548;2023-08-07T01:01:53;0.30;;;0.30;;
7049;SDS011;22263;52.260;10.548;2023-08-07T01:04:23;0.20;;;0.20;;
7049;SDS011;22263;52.260;10.548;2023-08-07T01:06:53;0.20;;;0.20;;
7049;SDS011;22263;52.260;10.548;2023-08-07T01:09:24;0.20;;;0.20;;
7049;SDS011;22263;52.260;10.548;2023-08-07T01:11:55;0.30;;;0.30;;
7049;SDS011;22263;52.260;10.548;2023-08-07T01:14:33;0.30;;;0.30;;
7049;SDS011;22263;52.260;10.548;2023-08-07T01:17:10;0.20;;;0.20;;
7049;SDS011;22263;52.260;10.548;2023-08-07T01:19:44;0.20;;;0.20;;
7049;SDS011;22263;52.260;10.548;2023-08-07T01:22:17;0.20;;;0.20;;
7049;SDS011;22263;52.260;10.548;2023-08-07T01:24:48;0.30;;;0.30;;
7049;SDS011;22263;52.260;10.548;2023-08-07T01:27:21;0.20;;;0.20;;
7049;SDS011;22263;52.260;10.548;2023-08-07T01:29:59;0.30;;;0.30;;
7049;SDS011;22263;52.260;10.548;2023-08-07T01:32:40;0.30;;;0.30;;
7049;SDS011;22263;52.260;10.548;2023-08-07T01:35:12;0.25;;;0.25;;
7049;SDS011;22263;52.260;10.548;2023-08-07T01:37:47;0.30;;;0.30;;
7049;SDS011;22263;52.260;10.548;2023-08-07T01:40:19;0.30;;;0.30;;
7049;SDS011;22263;52.260;10.548;2023-08-07T01:42:52;0.30;;;0.30;;
7049;SDS011;22263;52.260;10.548;2023-08-07T01:45:22;0.30;;;0.30;;
7049;SDS011;22263;52.260;10.548;2023-08-07T01:47:53;0.20;;;0.20;;
7049;SDS011;22263;52.260;10.548;2023-08-07T01:50:24;0.25;;;0.25;;
7049;SDS011;22263;52.260;10.548;2023-08-07T01:52:57;0.25;;;0.25;;
7049;SDS011;22263;52.260;10.548;2023-08-07T01:55:29;0.25;;;0.25;;
7049;SDS011;22263;52.260;10.548;2023-08-07T01:57:58;0.28;;;0.28;;
7049;SDS011;22263;52.260;10.548;2023-08-07T02:00:29;0.30;;;0.30;;
7049;SDS011;22263;52.260;10.548;2023-08-07T02:02:58;0.20;;;0.20;;
7049;SDS011;22263;52.260;10.548;2023-08-07T02:05:28;0.30;;;0.30;;
7049;SDS011;22263;52.260;10.548;2023-08-07T02:08:01;0.30;;;0.30;;
7049;SDS011;22263;52.260;10.548;2023-08-07T02:10:31;0.30;;;0.30;;
7049;SDS011;22263;52.260;10.548;2023-08-07T02:13:00;0.30;;;0.30;;
7049;SDS011;22263;52.260;10.548;2023-08-07T02:15:31;0.20;;;0.20;;
7049;SDS011;22263;52.260;10.548;2023-08-07T02:18:01;0.30;;;0.30;;
7049;SDS011;22263;52.260;10.548;2023-08-07T02:20:31;0.30;;;0.30;;
7049;SDS011;22263;52.260;10.548;2023-08-07T02:23:03;0.30;;;0.30;;
7049;SDS011;22263;52.260;10.548;2023-08-07T02:25:34;0.30;;;0.30;;
7049;SDS011;22263;52.260;10.548;2023-08-07T02:28:04;0.20;;;0.20;;
7049;SDS011;22263;52.260;10.548;2023-08-07T02:30:33;0.20;;;0.20;;
7049;SDS011;22263;52.260;10.548;2023-08-07T02:33:03;0.20;;;0.20;;
7049;SDS011;22263;52.260;10.548;2023-08-07T02:35:33;0.30;;;0.30;;
7049;SDS011;22263;52.260;10.548;2023-08-07T02:38:05;0.30;;;0.30;;
7049;SDS011;22263;52.260;10.548;2023-08-07T02:40:35;0.20;;;0.20;;
7049;SDS011;22263;52.260;10.548;2023-08-07T02:43:06;0.30;;;0.30;;
7049;SDS011;22263;52.260;10.548;2023-08-07T02:45:36;0.30;;;0.30;;
7049;SDS011;22263;52.260;10.548;2023-08-07T02:48:06;0.30;;;0.30;;
7049;SDS011;22263;52.260;10.548;2023-08-07T02:50:36;0.20;;;0.20;;
7049;SDS011;22263;52.260;10.548;2023-08-07T02:53:08;0.30;;;0.30;;
7049;SDS011;22263;52.260;10.548;2023-08-07T02:55:38;0.20;;;0.20;;
7049;SDS011;22263;52.260;10.548;2023-08-07T02:58:08;0.30;;;0.30;;
7049;SDS011;22263;52.260;10.548;2023-08-07T03:00:38;0.30;;;0.30;;
7049;SDS011;22263;52.260;10.548;2023-08-07T03:03:08;0.30;;;0.30;;
7049;SDS011;22263;52.260;10.548;2023-08-07T03:05:37;0.30;;;0.30;;
7049;SDS011;22263;52.260;10.548;2023-08-07T03:08:10;0.20;;;0.20;;
7049;SDS011;22263;52.260;10.548;2023-08-07T03:10:39;0.30;;;0.30;;
7049;SDS011;22263;52.260;10.548;2023-08-07T03:13:09;0.30;;;0.30;;
7049;SDS011;22263;52.260;10.548;2023-08-07T03:15:39;0.22;;;0.22;;
7049;SDS011;22263;52.260;10.548;2023-08-07T03:18:09;0.28;;;0.28;;
7049;SDS011;22263;52.260;10.548;2023-08-07T03:20:39;0.28;;;0.28;;
7049;SDS011;22263;52.260;10.548;2023-08-07T03:23:12;0.30;;;0.30;;
7049;SDS011;22263;52.260;10.548;2023-08-07T03:25:42;0.30;;;0.30;;
7049;SDS011;22263;52.260;10.548;2023-08-07T03:28:12;0.30;;;0.30;;
7049;SDS011;22263;52.260;10.548;2023-08-07T03:30:42;0.25;;;0.25;;
7049;SDS011;22263;52.260;10.548;2023-08-07T03:33:13;0.30;;;0.30;;
7049;SDS011;22263;52.260;10.548;2023-08-07T03:35:43;0.30;;;0.30;;
7049;SDS011;22263;52.260;10.548;2023-08-07T03:38:15;0.30;;;0.30;;
7049;SDS011;22263;52.260;10.548;2023-08-07T03:40:46;0.30;;;0.30;;
7049;SDS011;22263;52.260;10.548;2023-08-07T03:43:16;0.28;;;0.28;;
7049;SDS011;22263;52.260;10.548;2023-08-07T03:45:46;0.30;;;0.30;;
7049;SDS011;22263;52.260;10.548;2023-08-07T03:48:16;0.20;;;0.20;;
7049;SDS011;22263;52.260;10.548;2023-08-07T03:50:46;0.30;;;0.30;;
7049;SDS011;22263;52.260;10.548;2023-08-07T03:53:19;0.30;;;0.30;;
7049;SDS011;22263;52.260;10.548;2023-08-07T03:55:49;0.30;;;0.30;;
7049;SDS011;22263;52.260;10.548;2023-08-07T03:58:21;0.20;;;0.20;;
7049;SDS011;22263;52.260;10.548;2023-08-07T04:00:51;0.20;;;0.20;;
7049;SDS011;22263;52.260;10.548;2023-08-07T04:03:21;0.30;;;0.30;;
7049;SDS011;22263;52.260;10.548;2023-08-07T04:05:52;0.30;;;0.30;;
7049;SDS011;22263;52.260;10.548;2023-08-07T04:08:26;0.30;;;0.30;;
7049;SDS011;22263;52.260;10.548;2023-08-07T04:10:59;0.30;;;0.30;;
7049;SDS011;22263;52.260;10.548;2023-08-07T04:13:31;0.30;;;0.30;;
7049;SDS011;22263;52.260;10.548;2023-08-07T04:16:01;0.30;;;0.30;;
7049;SDS011;22263;52.260;10.548;2023-08-07T04:18:32;0.30;;;0.30;;
7049;SDS011;22263;52.260;10.548;2023-08-07T04:21:02;0.30;;;0.30;;
7049;SDS011;22263;52.260;10.548;2023-08-07T04:23:35;0.30;;;0.30;;
7049;SDS011;22263;52.260;10.548;2023-08-07T04:26:08;0.30;;;0.30;;
7049;SDS011;22263;52.260;10.548;2023-08-07T04:28:38;0.30;;;0.30;;
7049;SDS011;22263;52.260;10.548;2023-08-07T04:31:08;0.30;;;0.30;;
7049;SDS011;22263;52.260;10.548;2023-08-07T04:33:37;0.30;;;0.30;;
7049;SDS011;22263;52.260;10.548;2023-08-07T04:36:07;0.30;;;0.30;;
7049;SDS011;22263;52.260;10.548;2023-08-07T04:38:40;0.30;;;0.30;;
7049;SDS011;22263;52.260;10.548;2023-08-07T04:41:09;0.30;;;0.30;;
7049;SDS011;22263;52.260;10.548;2023-08-07T04:43:39;0.30;;;0.30;;
7049;SDS011;22263;52.260;10.548;2023-08-07T04:46:09;0.30;;;0.30;;
7049;SDS011;22263;52.260;10.548;2023-08-07T04:48:39;0.30;;;0.30;;
7049;SDS011;22263;52.260;10.548;2023-08-07T04:51:09;0.22;;;0.22;;
7049;SDS011;22263;52.260;10.548;2023-08-07T04:53:41;0.28;;;0.28;;
7049;SDS011;22263;52.260;10.548;2023-08-07T04:56:11;0.30;;;0.30;;
7049;SDS011;22263;52.260;10.548;2023-08-07T04:58:40;0.30;;;0.30;;
7049;SDS011;22263;52.260;10.548;2023-08-07T05:01:10;0.30;;;0.30;;
7049;SDS011;22263;52.260;10.548;2023-08-07T05:03:40;0.30;;;0.30;;
7049;SDS011;22263;52.260;10.548;2023-08-07T05:06:10;0.30;;;0.30;;
7049;SDS011;22263;52.260;10.548;2023-08-07T05:08:42;0.20;;;0.20;;
7049;SDS011;22263;52.260;10.548;2023-08-07T05:11:12;0.30;;;0.30;;
7049;SDS011;22263;52.260;10.548;2023-08-07T05:13:42;0.30;;;0.30;;
7049;SDS011;22263;52.260;10.548;2023-08-07T05:16:12;0.30;;;0.30;;
7049;SDS011;22263;52.260;10.548;2023-08-07T05:18:41;0.20;;;0.20;;
7049;SDS011;22263;52.260;10.548;2023-08-07T05:21:13;0.30;;;0.30;;
7049;SDS011;22263;52.260;10.548;2023-08-07T05:23:46;0.30;;;0.30;;
7049;SDS011;22263;52.260;10.548;2023-08-07T05:26:19;0.30;;;0.30;;
7049;SDS011;22263;52.260;10.548;2023-08-07T05:28:49;0.25;;;0.25;;
7049;SDS011;22263;52.260;10.548;2023-08-07T05:31:21;0.20;;;0.20;;
7049;SDS011;22263;52.260;10.548;2023-08-07T05:33:54;0.30;;;0.30;;
7049;SDS011;22263;52.260;10.548;2023-08-07T05:36:23;0.20;;;0.20;;
7049;SDS011;22263;52.260;10.548;2023-08-07T05:38:56;0.30;;;0.30;;
7049;SDS011;22263;52.260;10.548;2023-08-07T05:41:26;0.30;;;0.30;;
7049;SDS011;22263;52.260;10.548;2023-08-07T05:43:55;0.30;;;0.30;;
7049;SDS011;22263;52.260;10.548;2023-08-07T05:46:25;0.25;;;0.25;;
7049;SDS011;22263;52.260;10.548;2023-08-07T05:48:55;0.30;;;0.30;;
7049;SDS011;22263;52.260;10.548;2023-08-07T05:51:25;0.30;;;0.30;;
7049;SDS011;22263;52.260;10.548;2023-08-07T05:53:57;0.20;;;0.20;;
7049;SDS011;22263;52.260;10.548;2023-08-07T05:56:27;0.30;;;0.30;;
7049;SDS011;22263;52.260;10.548;2023-08-07T05:58:56;0.20;;;0.20;;
7049;SDS011;22263;52.260;10.548;2023-08-07T06:01:26;0.30;;;0.30;;
7049;SDS011;22263;52.260;10.548;2023-08-07T06:03:57;0.30;;;0.30;;
7049;SDS011;22263;52.260;10.548;2023-08-07T06:06:27;0.30;;;0.30;;
7049;SDS011;22263;52.260;10.548;2023-08-07T06:09:04;0.30;;;0.30;;
7049;SDS011;22263;52.260;10.548;2023-08-07T06:11:34;0.30;;;0.30;;
7049;SDS011;22263;52.260;10.548;2023-08-07T06:14:03;0.22;;;0.22;;
7049;SDS011;22263;52.260;10.548;2023-08-07T06:16:33;0.20;;;0.20;;
7049;SDS011;22263;52.260;10.548;2023-08-07T06:19:03;0.30;;;0.30;;
7049;SDS011;22263;52.260;10.548;2023-08-07T06:21:50;0.30;;;0.30;;
7049;SDS011;22263;52.260;10.548;2023-08-07T06:24:23;0.20;;;0.20;;
7049;SDS011;22263;52.260;10.548;2023-08-07T06:26:53;0.20;;;0.20;;
7049;SDS011;22263;52.260;10.548;2023-08-07T06:29:23;0.30;;;0.30;;
7049;SDS011;22263;52.260;10.548;2023-08-07T06:31:53;0.30;;;0.30;;
7049;SDS011;22263;52.260;10.548;2023-08-07T06:34:23;0.30;;;0.30;;
7049;SDS011;22263;52.260;10.548;2023-08-07T06:36:53;0.30;;;0.30;;
7049;SDS011;22263;52.260;10.548;2023-08-07T06:39:26;0.30;;;0.30;;
7049;SDS011;22263;52.260;10.548;2023-08-07T06:41:56;0.22;;;0.22;;
7049;SDS011;22263;52.260;10.548;2023-08-07T06:44:33;0.30;;;0.30;;
7049;SDS011;22263;52.260;10.548;2023-08-07T06:47:03;0.25;;;0.25;;
7049;SDS011;22263;52.260;10.548;2023-08-07T06:49:36;0.30;;;0.30;;
7049;SDS011;22263;52.260;10.548;2023-08-07T06:52:06;0.30;;;0.30;;
7049;SDS011;22263;52.260;10.548;2023-08-07T06:54:38;0.30;;;0.30;;
7049;SDS011;22263;52.260;10.548;2023-08-07T06:57:08;0.30;;;0.30;;
7049;SDS011;22263;52.260;10.548;2023-08-07T06:59:38;0.30;;;0.30;;
7049;SDS011;22263;52.260;10.548;2023-08-07T07:02:07;0.30;;;0.30;;
7049;SDS011;22263;52.260;10.548;2023-08-07T07:04:38;0.30;;;0.30;;
7049;SDS011;22263;52.260;10.548;2023-08-07T07:07:07;0.30;;;0.30;;
7049;SDS011;22263;52.260;10.548;2023-08-07T07:09:40;0.30;;;0.30;;
7049;SDS011;22263;52.260;10.548;2023-08-07T07:12:10;0.20;;;0.20;;
7049;SDS011;22263;52.260;10.548;2023-08-07T07:14:39;0.30;;;0.30;;
7049;SDS011;22263;52.260;10.548;2023-08-07T07:17:09;0.20;;;0.20;;
7049;SDS011;22263;52.260;10.548;2023-08-07T07:19:39;0.30;;;0.30;;
7049;SDS011;22263;52.260;10.548;2023-08-07T07:22:09;0.30;;;0.30;;
7049;SDS011;22263;52.260;10.548;2023-08-07T07:24:41;0.30;;;0.30;;
7049;SDS011;22263;52.260;10.548;2023-08-07T07:27:11;0.30;;;0.30;;
7049;SDS011;22263;52.260;10.548;2023-08-07T07:29:41;0.30;;;0.30;;
7049;SDS011;22263;52.260;10.548;2023-08-07T07:32:11;0.22;;;0.22;;
7049;SDS011;22263;52.260;10.548;2023-08-07T07:34:40;0.30;;;0.30;;
7049;SDS011;22263;52.260;10.548;2023-08-07T07:37:10;0.30;;;0.30;;
7049;SDS011;22263;52.260;10.548;2023-08-07T07:39:43;0.30;;;0.30;;
7049;SDS011;22263;52.260;10.548;2023-08-07T07:42:13;0.30;;;0.30;;
7049;SDS011;22263;52.260;10.548;2023-08-07T07:44:43;0.30;;;0.30;;
7049;SDS011;22263;52.260;10.548;2023-08-07T07:47:13;0.30;;;0.30;;
7049;SDS011;22263;52.260;10.548;2023-08-07T07:49:44;0.20;;;0.20;;
7049;SDS011;22263;52.260;10.548;2023-08-07T07:52:15;0.20;;;0.20;;
7049;SDS011;22263;52.260;10.548;2023-08-07T07:54:47;0.30;;;0.30;;
7049;SDS011;22263;52.260;10.548;2023-08-07T07:57:17;0.30;;;0.30;;
7049;SDS011;22263;52.260;10.548;2023-08-07T07:59:47;0.20;;;0.20;;
7049;SDS011;22263;52.260;10.548;2023-08-07T08:02:16;0.20;;;0.20;;
7049;SDS011;22263;52.260;10.548;2023-08-07T08:04:46;0.20;;;0.20;;
7049;SDS011;22263;52.260;10.548;2023-08-07T08:07:16;0.20;;;0.20;;
7049;SDS011;22263;52.260;10.548;2023-08-07T08:09:48;0.20;;;0.20;;
7049;SDS011;22263;52.260;10.548;2023-08-07T08:12:18;0.20;;;0.20;;
7049;SDS011;22263;52.260;10.548;2023-08-07T08:14:51;0.20;;;0.20;;
7049;SDS011;22263;52.260;10.548;2023-08-07T08:17:22;0.20;;;0.20;;
7049;SDS011;22263;52.260;10.548;2023-08-07T08:19:52;0.20;;;0.20;;
7049;SDS011;22263;52.260;10.548;2023-08-07T08:22:22;0.20;;;0.20;;
7049;SDS011;22263;52.260;10.548;2023-08-07T08:24:55;0.30;;;0.30;;
7049;SDS011;22263;52.260;10.548;2023-08-07T08:27:25;0.20;;;0.20;;
7049;SDS011;22263;52.260;10.548;2023-08-07T08:29:54;0.30;;;0.30;;
7049;SDS011;22263;52.260;10.548;2023-08-07T08:32:24;0.20;;;0.20;;
7049;SDS011;22263;52.260;10.548;2023-08-07T08:34:54;0.20;;;0.20;;
7049;SDS011;22263;52.260;10.548;2023-08-07T08:37:24;0.20;;;0.20;;
7049;SDS011;22263;52.260;10.548;2023-08-07T08:39:57;0.17;;;0.17;;
7049;SDS011;22263;52.260;10.548;2023-08-07T08:42:27;0.20;;;0.20;;
7049;SDS011;22263;52.260;10.548;2023-08-07T08:44:57;0.20;;;0.20;;
7049;SDS011;22263;52.260;10.548;2023-08-07T08:47:28;0.20;;;0.20;;
7049;SDS011;22263;52.260;10.548;2023-08-07T08:50:02;0.22;;;0.22;;
7049;SDS011;22263;52.260;10.548;2023-08-07T08:52:36;0.20;;;0.20;;
7049;SDS011;22263;52.260;10.548;2023-08-07T08:55:10;0.20;;;0.20;;
7049;SDS011;22263;52.260;10.548;2023-08-07T08:57:41;0.10;;;0.10;;
7049;SDS011;22263;52.260;10.548;2023-08-07T09:00:13;0.20;;;0.20;;
7049;SDS011;22263;52.260;10.548;2023-08-07T09:02:47;0.20;;;0.20;;
7049;SDS011;22263;52.260;10.548;2023-08-07T09:05:19;0.10;;;0.10;;
7049;SDS011;22263;52.260;10.548;2023-08-07T09:07:50;0.10;;;0.10;;
7049;SDS011;22263;52.260;10.548;2023-08-07T09:10:22;0.25;;;0.25;;
7049;SDS011;22263;52.260;10.548;2023-08-07T09:12:53;0.20;;;0.20;;
7049;SDS011;22263;52.260;10.548;2023-08-07T09:15:31;0.20;;;0.20;;
7049;SDS011;22263;52.260;10.548;2023-08-07T09:18:02;0.20;;;0.20;;
7049;SDS011;22263;52.260;10.548;2023-08-07T09:20:35;0.20;;;0.20;;
7049;SDS011;22263;52.260;10.548;2023-08-07T09:23:06;0.20;;;0.20;;
7049;SDS011;22263;52.260;10.548;2023-08-07T09:25:39;0.30;;;0.30;;
7049;SDS011;22263;52.260;10.548;2023-08-07T09:28:09;0.20;;;0.20;;
7049;SDS011;22263;52.260;10.548;2023-08-07T09:30:39;0.10;;;0.10;;
7049;SDS011;22263;52.260;10.548;2023-08-07T09:33:11;0.15;;;0.15;;
7049;SDS011;22263;52.260;10.548;2023-08-07T09:35:41;0.20;;;0.20;;
7049;SDS011;22263;52.260;10.548;2023-08-07T09:38:11;0.20;;;0.20;;
7049;SDS011;22263;52.260;10.548;2023-08-07T09:40:44;0.20;;;0.20;;
7049;SDS011;22263;52.260;10.548;2023-08-07T09:43:20;0.20;;;0.20;;
7049;SDS011;22263;52.260;10.548;2023-08-07T09:45:50;0.20;;;0.20;;
7049;SDS011;22263;52.260;10.548;2023-08-07T09:48:22;0.20;;;0.20;;
7049;SDS011;22263;52.260;10.548;2023-08-07T09:50:54;0.20;;;0.20;;
7049;SDS011;22263;52.260;10.548;2023-08-07T09:53:29;0.20;;;0.20;;
7049;SDS011;22263;52.260;10.548;2023-08-07T09:56:02;0.30;;;0.30;;
7049;SDS011;22263;52.260;10.548;2023-08-07T09:58:32;0.30;;;0.30;;
7049;SDS011;22263;52.260;10.548;2023-08-07T10:01:03;0.30;;;0.30;;
7049;SDS011;22263;52.260;10.548;2023-08-07T10:03:36;0.30;;;0.30;;
7049;SDS011;22263;52.260;10.548;2023-08-07T10:06:07;0.30;;;0.30;;
7049;SDS011;22263;52.260;10.548;2023-08-07T10:08:37;0.20;;;0.20;;
7049;SDS011;22263;52.260;10.548;2023-08-07T10:11:11;0.28;;;0.28;;
7049;SDS011;22263;52.260;10.548;2023-08-07T10:13:44;0.20;;;0.20;;
7049;SDS011;22263;52.260;10.548;2023-08-07T10:16:14;0.30;;;0.30;;
7049;SDS011;22263;52.260;10.548;2023-08-07T10:18:44;0.20;;;0.20;;
7049;SDS011;22263;52.260;10.548;2023-08-07T10:21:14;0.20;;;0.20;;
7049;SDS011;22263;52.260;10.548;2023-08-07T10:23:44;0.20;;;0.20;;
7049;SDS011;22263;52.260;10.548;2023-08-07T10:26:19;0.20;;;0.20;;
7049;SDS011;22263;52.260;10.548;2023-08-07T10:28:53;0.20;;;0.20;;
7049;SDS011;22263;52.260;10.548;2023-08-07T10:31:24;0.20;;;0.20;;
7049;SDS011;22263;52.260;10.548;2023-08-07T10:34:02;0.20;;;0.20;;
7049;SDS011;22263;52.260;10.548;2023-08-07T10:36:32;0.20;;;0.20;;
7049;SDS011;22263;52.260;10.548;2023-08-07T10:39:05;0.10;;;0.10;;
7049;SDS011;22263;52.260;10.548;2023-08-07T10:41:42;0.10;;;0.10;;
7049;SDS011;22263;52.260;10.548;2023-08-07T10:44:17;0.10;;;0.10;;
7049;SDS011;22263;52.260;10.548;2023-08-07T10:46:49;0.10;;;0.10;;
7049;SDS011;22263;52.260;10.548;2023-08-07T10:49:29;0.10;;;0.10;;
7049;SDS011;22263;52.260;10.548;2023-08-07T10:52:04;0.10;;;0.10;;
7049;SDS011;22263;52.260;10.548;2023-08-07T10:54:38;0.10;;;0.10;;
7049;SDS011;22263;52.260;10.548;2023-08-07T10:57:13;0.20;;;0.20;;
7049;SDS011;22263;52.260;10.548;2023-08-07T10:59:44;0.20;;;0.20;;
7049;SDS011;22263;52.260;10.548;2023-08-07T11:02:21;0.10;;;0.10;;
7049;SDS011;22263;52.260;10.548;2023-08-07T11:04:53;0.13;;;0.13;;
7049;SDS011;22263;52.260;10.548;2023-08-07T11:07:24;0.20;;;0.20;;
7049;SDS011;22263;52.260;10.548;2023-08-07T11:09:55;0.10;;;0.10;;
7049;SDS011;22263;52.260;10.548;2023-08-07T11:12:28;0.10;;;0.10;;
7049;SDS011;22263;52.260;10.548;2023-08-07T11:14:58;0.20;;;0.20;;
7049;SDS011;22263;52.260;10.548;2023-08-07T11:17:29;0.20;;;0.20;;
7049;SDS011;22263;52.260;10.548;2023-08-07T11:19:59;0.20;;;0.20;;
7049;SDS011;22263;52.260;10.548;2023-08-07T11:22:29;0.20;;;0.20;;
7049;SDS011;22263;52.260;10.548;2023-08-07T11:25:01;0.20;;;0.20;;
7049;SDS011;22263;52.260;10.548;2023-08-07T11:27:34;0.20;;;0.20;;
7049;SDS011;22263;52.260;10.548;2023-08-07T11:30:05;0.20;;;0.20;;
7049;SDS011;22263;52.260;10.548;2023-08-07T11:32:39;0.20;;;0.20;;
7049;SDS011;22263;52.260;10.548;2023-08-07T11:35:10;0.10;;;0.10;;
7049;SDS011;22263;52.260;10.548;2023-08-07T11:37:45;0.10;;;0.10;;
7049;SDS011;22263;52.260;10.548;2023-08-07T11:40:15;0.10;;;0.10;;
7049;SDS011;22263;52.260;10.548;2023-08-07T11:42:47;0.10;;;0.10;;
7049;SDS011;22263;52.260;10.548;2023-08-07T11:45:17;0.10;;;0.10;;
7049;SDS011;22263;52.260;10.548;2023-08-07T11:47:47;0.10;;;0.10;;
7049;SDS011;22263;52.260;10.548;2023-08-07T11:50:17;0.20;;;0.20;;
7049;SDS011;22263;52.260;10.548;2023-08-07T11:52:47;0.20;;;0.20;;
7049;SDS011;22263;52.260;10.548;2023-08-07T11:55:17;0.10;;;0.10;;
7049;SDS011;22263;52.260;10.548;2023-08-07T11:57:49;0.20;;;0.20;;
7049;SDS011;22263;52.260;10.548;2023-08-07T12:00:19;0.20;;;0.20;;
7049;SDS011;22263;52.260;10.548;2023-08-07T12:02:49;0.20;;;0.20;;
7049;SDS011;22263;52.260;10.548;2023-08-07T12:05:19;0.25;;;0.25;;
7049;SDS011;22263;52.260;10.548;2023-08-07T12:07:49;0.20;;;0.20;;
7049;SDS011;22263;52.260;10.548;2023-08-07T12:10:22;0.20;;;0.20;;
7049;SDS011;22263;52.260;10.548;2023-08-07T12:12:58;0.15;;;0.15;;
7049;SDS011;22263;52.260;10.548;2023-08-07T12:15:31;0.10;;;0.10;;
7049;SDS011;22263;52.260;10.548;2023-08-07T12:18:01;0.10;;;0.10;;
7049;SDS011;22263;52.260;10.548;2023-08-07T12:20:30;0.10;;;0.10;;
7049;SDS011;22263;52.260;10.548;2023-08-07T12:23:00;0.10;;;0.10;;
7049;SDS011;22263;52.260;10.548;2023-08-07T12:25:30;0.10;;;0.10;;
7049;SDS011;22263;52.260;10.548;2023-08-07T12:28:03;0.10;;;0.10;;
7049;SDS011;22263;52.260;10.548;2023-08-07T12:30:34;0.10;;;0.10;;
7049;SDS011;22263;52.260;10.548;2023-08-07T12:33:04;0.10;;;0.10;;
7049;SDS011;22263;52.260;10.548;2023-08-07T12:35:34;0.10;;;0.10;;
7049;SDS011;22263;52.260;10.548;2023-08-07T12:38:04;0.10;;;0.10;;
7049;SDS011;22263;52.260;10.548;2023-08-07T12:40:33;0.10;;;0.10;;
7049;SDS011;22263;52.260;10.548;2023-08-07T12:43:08;0.10;;;0.10;;
7049;SDS011;22263;52.260;10.548;2023-08-07T12:45:38;0.10;;;0.10;;
7049;SDS011;22263;52.260;10.548;2023-08-07T12:48:11;0.20;;;0.20;;
7049;SDS011;22263;52.260;10.548;2023-08-07T12:50:41;0.10;;;0.10;;
7049;SDS011;22263;52.260;10.548;2023-08-07T12:53:11;0.10;;;0.10;;
7049;SDS011;22263;52.260;10.548;2023-08-07T12:55:40;0.10;;;0.10;;
7049;SDS011;22263;52.260;10.548;2023-08-07T12:58:13;0.10;;;0.10;;
7049;SDS011;22263;52.260;10.548;2023-08-07T13:00:45;0.10;;;0.10;;
7049;SDS011;22263;52.260;10.548;2023-08-07T13:03:15;0.20;;;0.20;;
7049;SDS011;22263;52.260;10.548;2023-08-07T13:05:44;0.15;;;0.15;;
7049;SDS011;22263;52.260;10.548;2023-08-07T13:08:14;0.20;;;0.20;;
7049;SDS011;22263;52.260;10.548;2023-08-07T13:10:44;0.10;;;0.10;;
7049;SDS011;22263;52.260;10.548;2023-08-07T13:13:18;0.10;;;0.10;;
7049;SDS011;22263;52.260;10.548;2023-08-07T13:15:48;0.10;;;0.10;;
7049;SDS011;22263;52.260;10.548;2023-08-07T13:18:21;0.10;;;0.10;;
7049;SDS011;22263;52.260;10.548;2023-08-07T13:20:51;0.10;;;0.10;;
7049;SDS011;22263;52.260;10.548;2023-08-07T13:23:20;0.13;;;0.13;;
7049;SDS011;22263;52.260;10.548;2023-08-07T13:25:50;0.10;;;0.10;;
7049;SDS011;22263;52.260;10.548;2023-08-07T13:28:23;0.10;;;0.10;;
7049;SDS011;22263;52.260;10.548;2023-08-07T13:30:52;0.10;;;0.10;;
7049;SDS011;22263;52.260;10.548;2023-08-07T13:33:24;0.20;;;0.20;;
7049;SDS011;22263;52.260;10.548;2023-08-07T13:35:54;0.20;;;0.20;;
7049;SDS011;22263;52.260;10.548;2023-08-07T13:38:24;0.10;;;0.10;;
7049;SDS011;22263;52.260;10.548;2023-08-07T13:40:54;0.10;;;0.10;;
7049;SDS011;22263;52.260;10.548;2023-08-07T13:43:26;0.10;;;0.10;;
7049;SDS011;22263;52.260;10.548;2023-08-07T13:45:56;0.10;;;0.10;;
7049;SDS011;22263;52.260;10.548;2023-08-07T13:48:26;0.10;;;0.10;;
7049;SDS011;22263;52.260;10.548;2023-08-07T13:50:56;0.10;;;0.10;;
7049;SDS011;22263;52.260;10.548;2023-08-07T13:53:27;0.10;;;0.10;;
7049;SDS011;22263;52.260;10.548;2023-08-07T13:55:57;0.10;;;0.10;;
7049;SDS011;22263;52.260;10.548;2023-08-07T13:58:29;0.20;;;0.20;;
7049;SDS011;22263;52.260;10.548;2023-08-07T14:00:59;0.10;;;0.10;;
7049;SDS011;22263;52.260;10.548;2023-08-07T14:03:29;0.20;;;0.20;;
7049;SDS011;22263;52.260;10.548;2023-08-07T14:05:58;0.17;;;0.17;;
7049;SDS011;22263;52.260;10.548;2023-08-07T14:08:28;0.20;;;0.20;;
7049;SDS011;22263;52.260;10.548;2023-08-07T14:10:59;0.25;;;0.25;;
7049;SDS011;22263;52.260;10.548;2023-08-07T14:13:31;0.20;;;0.20;;
7049;SDS011;22263;52.260;10.548;2023-08-07T14:16:01;0.20;;;0.20;;
7049;SDS011;22263;52.260;10.548;2023-08-07T14:18:31;0.20;;;0.20;;
7049;SDS011;22263;52.260;10.548;2023-08-07T14:21:01;0.20;;;0.20;;
7049;SDS011;22263;52.260;10.548;2023-08-07T14:23:30;0.20;;;0.20;;
7049;SDS011;22263;52.260;10.548;2023-08-07T14:26:00;0.20;;;0.20;;
7049;SDS011;22263;52.260;10.548;2023-08-07T14:28:33;0.20;;;0.20;;
7049;SDS011;22263;52.260;10.548;2023-08-07T14:31:05;0.20;;;0.20;;
7049;SDS011;22263;52.260;10.548;2023-08-07T14:33:36;0.10;;;0.10;;
7049;SDS011;22263;52.260;10.548;2023-08-07T14:36:06;0.20;;;0.20;;
7049;SDS011;22263;52.260;10.548;2023-08-07T14:38:36;0.20;;;0.20;;
7049;SDS011;22263;52.260;10.548;2023-08-07T14:41:06;0.20;;;0.20;;
7049;SDS011;22263;52.260;10.548;2023-08-07T14:43:38;0.20;;;0.20;;
7049;SDS011;22263;52.260;10.548;2023-08-07T14:46:08;0.17;;;0.17;;
7049;SDS011;22263;52.260;10.548;2023-08-07T14:48:38;0.10;;;0.10;;
7049;SDS011;22263;52.260;10.548;2023-08-07T14:51:08;0.10;;;0.10;;
7049;SDS011;22263;52.260;10.548;2023-08-07T14:53:37;0.10;;;0.10;;
7049;SDS011;22263;52.260;10.548;2023-08-07T14:56:07;0.17;;;0.17;;
7049;SDS011;22263;52.260;10.548;2023-08-07T14:58:40;0.10;;;0.10;;
7049;SDS011;22263;52.260;10.548;2023-08-07T15:01:10;0.10;;;0.10;;
7049;SDS011;22263;52.260;10.548;2023-08-07T15:03:39;0.20;;;0.20;;
7049;SDS011;22263;52.260;10.548;2023-08-07T15:06:09;0.10;;;0.10;;
7049;SDS011;22263;52.260;10.548;2023-08-07T15:08:39;0.20;;;0.20;;
7049;SDS011;22263;52.260;10.548;2023-08-07T15:11:09;0.15;;;0.15;;